Time,TemperatureF,DewpointF,PressureIn,WindDirection,WindDirectionDegrees,WindSpeedMPH,WindSpeedGustMPH,Humidity,HourlyPrecipIn,Conditions,Clouds,dailyrainin,SolarRadiationWatts/m^2,SoftwareType,DateUTC
2013-08-13 00:13:00,65.5,38.0,29.92,West,263,8.0,-999.0,36,-99.99,,,0.00,0,weatherlink.com 1.10,2013-08-13 07:13:00,
2013-08-13 00:28:00,65.4,35.0,29.92,WSW,246,7.0,-999.0,33,-99.99,,,0.00,0,weatherlink.com 1.10,2013-08-13 07:28:00,
2013-08-13 00:43:00,65.4,35.0,29.92,WSW,246,10.0,-999.0,33,-99.99,,,0.00,0,weatherlink.com 1.10,2013-08-13 07:43:00,
2013-08-13 00:58:00,66.4,36.0,29.92,WSW,254,6.0,-999.0,33,-99.99,,,0.00,0,weatherlink.com 1.10,2013-08-13 07:58:00,
2013-08-13 01:13:00,65.9,37.0,29.92,West,259,6.0,-999.0,34,-99.99,,,0.00,0,weatherlink.com 1.10,2013-08-13 08:13:00,
2013-08-13 01:28:00,65.4,38.0,29.91,WSW,238,8.0,-999.0,37,-99.99,,,0.00,0,weatherlink.com 1.10,2013-08-13 08:28:00,
2013-08-13 01:43:00,65.4,40.0,29.91,WSW,255,8.0,-999.0,39,-99.99,,,0.00,0,weatherlink.com 1.10,2013-08-13 08:43:00,
2013-08-13 01:57:00,64.8,40.0,29.90,West,274,7.0,-999.0,41,-99.99,,,0.00,0,weatherlink.com 1.10,2013-08-13 08:57:00,
2013-08-13 02:12:00,64.7,41.0,29.91,West,276,5.0,-999.0,42,-99.99,,,0.00,0,weatherlink.com 1.10,2013-08-13 09:12:00,
2013-08-13 02:27:00,64.7,42.0,29.90,WSW,244,9.0,-999.0,43,-99.99,,,0.00,0,weatherlink.com 1.10,2013-08-13 09:27:00,
2013-08-13 02:42:00,64.7,42.0,29.90,WSW,240,6.0,-999.0,44,-99.99,,,0.00,0,weatherlink.com 1.10,2013-08-13 09:42:00,
2013-08-13 02:57:00,65.2,43.0,29.90,WSW,239,10.0,-999.0,44,-99.99,,,0.00,0,weatherlink.com 1.10,2013-08-13 09:57:00,
2013-08-13 03:12:00,65.4,43.0,29.90,WSW,248,11.0,-999.0,44,-99.99,,,0.00,0,weatherlink.com 1.10,2013-08-13 10:12:00,
2013-08-13 03:27:00,64.8,42.0,29.90,WNW,298,5.0,-999.0,44,-99.99,,,0.00,0,weatherlink.com 1.10,2013-08-13 10:27:00,
2013-08-13 03:42:00,63.6,43.0,29.90,NW,307,3.0,-999.0,47,-99.99,,,0.00,0,weatherlink.com 1.10,2013-08-13 10:42:00,
2013-08-13 03:58:00,62.9,43.0,29.90,WNW,302,0.0,-999.0,48,-99.99,,,0.00,0,weatherlink.com 1.10,2013-08-13 10:58:00,
2013-08-13 04:13:00,61.9,42.0,29.90,WNW,286,4.0,-999.0,49,-99.99,,,0.00,0,weatherlink.com 1.10,2013-08-13 11:13:00,
2013-08-13 04:28:00,61.7,43.0,29.90,West,267,1.0,-999.0,50,-99.99,,,0.00,0,weatherlink.com 1.10,2013-08-13 11:28:00,
2013-08-13 04:43:00,61.6,43.0,29.90,West,267,3.0,-999.0,50,-99.99,,,0.00,0,weatherlink.com 1.10,2013-08-13 11:43:00,
2013-08-13 04:58:00,61.4,42.0,29.90,West,266,4.0,-999.0,49,-99.99,,,0.00,0,weatherlink.com 1.10,2013-08-13 11:58:00,
2013-08-13 05:13:00,61.6,42.0,29.90,WSW,252,5.0,-999.0,49,-99.99,,,0.00,0,weatherlink.com 1.10,2013-08-13 12:13:00,
2013-08-13 05:28:00,62.7,43.0,29.90,WSW,257,8.0,-999.0,48,-99.99,,,0.00,0,weatherlink.com 1.10,2013-08-13 12:28:00,
2013-08-13 05:43:00,62.9,43.0,29.90,WSW,251,7.0,-999.0,48,-99.99,,,0.00,0,weatherlink.com 1.10,2013-08-13 12:43:00,
2013-08-13 05:58:00,63.0,42.0,29.90,WSW,250,6.0,-999.0,47,-99.99,,,0.00,0,weatherlink.com 1.10,2013-08-13 12:58:00,
2013-08-13 06:13:00,62.8,43.0,29.90,WSW,244,5.0,-999.0,48,-99.99,,,0.00,0,weatherlink.com 1.10,2013-08-13 13:13:00,
2013-08-13 06:28:00,62.9,43.0,29.91,WSW,246,6.0,-999.0,48,-99.99,,,0.00,11,weatherlink.com 1.10,2013-08-13 13:28:00,
2013-08-13 06:43:00,62.9,43.0,29.91,WSW,250,4.0,-999.0,48,-99.99,,,0.00,32,weatherlink.com 1.10,2013-08-13 13:43:00,
2013-08-13 06:58:00,63.5,42.0,29.91,WSW,238,4.0,-999.0,46,-99.99,,,0.00,72,weatherlink.com 1.10,2013-08-13 13:58:00,
2013-08-13 07:13:00,64.3,43.0,29.91,WSW,258,0.0,-999.0,46,-99.99,,,0.00,121,weatherlink.com 1.10,2013-08-13 14:13:00,
2013-08-13 07:28:00,65.4,44.0,29.91,WSW,258,0.0,-999.0,47,-99.99,,,0.00,181,weatherlink.com 1.10,2013-08-13 14:28:00,
2013-08-13 07:43:00,67.5,45.0,29.91,WSW,258,0.0,-999.0,45,-99.99,,,0.00,239,weatherlink.com 1.10,2013-08-13 14:43:00,
2013-08-13 07:58:00,69.4,46.0,29.91,West,272,0.0,-999.0,43,-99.99,,,0.00,288,weatherlink.com 1.10,2013-08-13 14:58:00,
2013-08-13 08:13:00,71.3,46.0,29.92,NW,326,3.0,-999.0,40,-99.99,,,0.00,339,weatherlink.com 1.10,2013-08-13 15:13:00,
2013-08-13 08:28:00,72.7,45.0,29.92,NW,325,4.0,-999.0,37,-99.99,,,0.00,392,weatherlink.com 1.10,2013-08-13 15:28:00,
2013-08-13 08:43:00,73.5,45.0,29.92,NNW,347,4.0,-999.0,36,-99.99,,,0.00,438,weatherlink.com 1.10,2013-08-13 15:43:00,
2013-08-13 08:58:00,74.0,44.0,29.92,North,350,3.0,-999.0,34,-99.99,,,0.00,487,weatherlink.com 1.10,2013-08-13 15:58:00,
2013-08-13 09:14:00,75.0,44.0,29.92,NNW,343,6.0,-999.0,33,-99.99,,,0.00,533,weatherlink.com 1.10,2013-08-13 16:14:00,
2013-08-13 09:29:00,75.9,42.0,29.92,NNW,327,7.0,-999.0,30,-99.99,,,0.00,578,weatherlink.com 1.10,2013-08-13 16:29:00,
2013-08-13 09:44:00,77.3,43.0,29.92,NNW,327,7.0,-999.0,29,-99.99,,,0.00,624,weatherlink.com 1.10,2013-08-13 16:44:00,
2013-08-13 09:59:00,78.1,41.0,29.92,NNW,338,6.0,-999.0,27,-99.99,,,0.00,664,weatherlink.com 1.10,2013-08-13 16:59:00,
2013-08-13 10:14:00,79.4,42.0,29.91,WNW,298,6.0,-999.0,26,-99.99,,,0.00,705,weatherlink.com 1.10,2013-08-13 17:14:00,
2013-08-13 10:29:00,80.7,41.0,29.91,North,355,6.0,-999.0,24,-99.99,,,0.00,740,weatherlink.com 1.10,2013-08-13 17:29:00,
2013-08-13 10:44:00,81.2,41.0,29.91,North,360,3.0,-999.0,24,-99.99,,,0.00,773,weatherlink.com 1.10,2013-08-13 17:44:00,
2013-08-13 10:59:00,82.5,41.0,29.91,North,355,9.0,-999.0,23,-99.99,,,0.00,803,weatherlink.com 1.10,2013-08-13 17:59:00,
2013-08-13 11:14:00,83.5,41.0,29.91,NNW,348,8.0,-999.0,22,-99.99,,,0.00,831,weatherlink.com 1.10,2013-08-13 18:14:00,
2013-08-13 11:29:00,83.5,41.0,29.90,NNW,332,6.0,-999.0,22,-99.99,,,0.00,854,weatherlink.com 1.10,2013-08-13 18:29:00,
2013-08-13 11:44:00,84.0,41.0,29.90,North,350,4.0,-999.0,22,-99.99,,,0.00,872,weatherlink.com 1.10,2013-08-13 18:44:00,
2013-08-13 11:59:00,85.8,40.0,29.89,NNW,332,8.0,-999.0,20,-99.99,,,0.00,891,weatherlink.com 1.10,2013-08-13 18:59:00,
2013-08-13 12:14:00,86.2,41.0,29.89,North,355,7.0,-999.0,20,-99.99,,,0.00,905,weatherlink.com 1.10,2013-08-13 19:14:00,
2013-08-13 12:29:00,85.4,41.0,29.89,North,9,9.0,-999.0,21,-99.99,,,0.00,916,weatherlink.com 1.10,2013-08-13 19:29:00,
2013-08-13 12:44:00,86.5,42.0,29.89,North,355,6.0,-999.0,21,-99.99,,,0.00,918,weatherlink.com 1.10,2013-08-13 19:44:00,
2013-08-13 13:00:00,86.5,43.0,29.88,NW,304,6.0,-999.0,22,-99.99,,,0.00,921,weatherlink.com 1.10,2013-08-13 20:00:00,
2013-08-13 13:15:00,87.0,43.0,29.88,NW,313,11.0,-999.0,21,-99.99,,,0.00,914,weatherlink.com 1.10,2013-08-13 20:15:00,
2013-08-13 13:30:00,87.1,43.0,29.88,North,351,8.0,-999.0,21,-99.99,,,0.00,905,weatherlink.com 1.10,2013-08-13 20:30:00,
2013-08-13 13:45:00,86.7,42.0,29.88,NW,323,11.0,-999.0,21,-99.99,,,0.00,891,weatherlink.com 1.10,2013-08-13 20:45:00,
2013-08-13 14:00:00,86.6,42.0,29.87,NW,321,9.0,-999.0,21,-99.99,,,0.00,872,weatherlink.com 1.10,2013-08-13 21:00:00,
2013-08-13 14:15:00,86.4,42.0,29.87,NNW,329,6.0,-999.0,21,-99.99,,,0.00,856,weatherlink.com 1.10,2013-08-13 21:15:00,
2013-08-13 14:30:00,87.6,43.0,29.87,WSW,246,8.0,-999.0,21,-99.99,,,0.00,837,weatherlink.com 1.10,2013-08-13 21:30:00,
2013-08-13 14:45:00,88.5,43.0,29.87,East,94,0.0,-999.0,20,-99.99,,,0.00,814,weatherlink.com 1.10,2013-08-13 21:45:00,
2013-08-13 15:00:00,88.4,43.0,29.86,West,262,14.0,-999.0,20,-99.99,,,0.00,789,weatherlink.com 1.10,2013-08-13 22:00:00,
2013-08-13 15:15:00,86.8,41.0,29.86,WSW,252,9.0,-999.0,20,-99.99,,,0.00,754,weatherlink.com 1.10,2013-08-13 22:15:00,
2013-08-13 15:30:00,87.5,43.0,29.86,WNW,292,7.0,-999.0,21,-99.99,,,0.00,715,weatherlink.com 1.10,2013-08-13 22:30:00,
2013-08-13 15:45:00,87.3,43.0,29.86,WNW,284,9.0,-999.0,21,-99.99,,,0.00,675,weatherlink.com 1.10,2013-08-13 22:45:00,
2013-08-13 16:15:00,86.7,42.0,29.86,WNW,298,10.0,-999.0,21,-99.99,,,0.00,599,weatherlink.com 1.10,2013-08-13 23:15:00,
2013-08-13 16:30:00,86.4,42.0,29.85,West,274,8.0,-999.0,21,-99.99,,,0.00,563,weatherlink.com 1.10,2013-08-13 23:30:00,
2013-08-13 16:45:00,86.6,40.0,29.85,WNW,286,7.0,-999.0,19,-99.99,,,0.00,515,weatherlink.com 1.10,2013-08-13 23:45:00,
2013-08-13 17:00:00,86.2,41.0,29.85,NW,307,7.0,-999.0,20,-99.99,,,0.00,469,weatherlink.com 1.10,2013-08-14 00:00:00,
2013-08-13 17:15:00,85.3,40.0,29.85,WNW,291,6.0,-999.0,20,-99.99,,,0.00,417,weatherlink.com 1.10,2013-08-14 00:15:00,
2013-08-13 17:30:00,84.9,40.0,29.85,WNW,296,7.0,-999.0,20,-99.99,,,0.00,369,weatherlink.com 1.10,2013-08-14 00:30:00,
2013-08-13 17:45:00,84.2,40.0,29.85,WSW,254,24.0,-999.0,21,-99.99,,,0.00,318,weatherlink.com 1.10,2013-08-14 00:45:00,
2013-08-13 18:00:00,82.9,39.0,29.85,West,267,12.0,-999.0,21,-99.99,,,0.00,267,weatherlink.com 1.10,2013-08-14 01:00:00,
2013-08-13 18:15:00,82.1,40.0,29.85,West,263,7.0,-999.0,22,-99.99,,,0.00,223,weatherlink.com 1.10,2013-08-14 01:15:00,
2013-08-13 18:30:00,81.4,39.0,29.86,WSW,256,12.0,-999.0,22,-99.99,,,0.00,172,weatherlink.com 1.10,2013-08-14 01:30:00,
2013-08-13 18:45:00,80.8,37.0,29.86,WNW,283,6.0,-999.0,21,-99.99,,,0.00,121,weatherlink.com 1.10,2013-08-14 01:45:00,
2013-08-13 19:00:00,80.0,38.0,29.86,West,269,7.0,-999.0,22,-99.99,,,0.00,70,weatherlink.com 1.10,2013-08-14 02:00:00,
2013-08-13 19:15:00,79.2,38.0,29.86,West,263,6.0,-999.0,23,-99.99,,,0.00,30,weatherlink.com 1.10,2013-08-14 02:15:00,
2013-08-13 19:30:00,77.8,39.0,29.86,WSW,249,8.0,-999.0,25,-99.99,,,0.00,11,weatherlink.com 1.10,2013-08-14 02:30:00,
2013-08-13 19:45:00,76.7,40.0,29.87,West,271,6.0,-999.0,27,-99.99,,,0.00,0,weatherlink.com 1.10,2013-08-14 02:45:00,
2013-08-13 20:00:00,75.7,40.0,29.87,West,278,6.0,-999.0,28,-99.99,,,0.00,0,weatherlink.com 1.10,2013-08-14 03:00:00,
2013-08-13 20:15:00,74.4,41.0,29.87,SW,236,4.0,-999.0,30,-99.99,,,0.00,0,weatherlink.com 1.10,2013-08-14 03:15:00,
2013-08-13 20:30:00,72.8,41.0,29.88,SW,233,5.0,-999.0,32,-99.99,,,0.00,0,weatherlink.com 1.10,2013-08-14 03:30:00,
2013-08-13 20:45:00,72.4,41.0,29.88,SW,232,7.0,-999.0,32,-99.99,,,0.00,0,weatherlink.com 1.10,2013-08-14 03:45:00,
2013-08-13 21:00:00,72.1,41.0,29.88,WSW,246,4.0,-999.0,32,-99.99,,,0.00,0,weatherlink.com 1.10,2013-08-14 04:00:00,
2013-08-13 21:15:00,71.6,40.0,29.89,West,259,4.0,-999.0,32,-99.99,,,0.00,0,weatherlink.com 1.10,2013-08-14 04:15:00,
2013-08-13 21:30:00,70.9,40.0,29.89,WSW,250,6.0,-999.0,32,-99.99,,,0.00,0,weatherlink.com 1.10,2013-08-14 04:30:00,
2013-08-13 21:46:00,70.4,38.0,29.89,West,262,4.0,-999.0,31,-99.99,,,0.00,0,weatherlink.com 1.10,2013-08-14 04:46:00,
2013-08-13 22:00:00,70.0,39.0,29.89,WSW,252,6.0,-999.0,32,-99.99,,,0.00,0,weatherlink.com 1.10,2013-08-14 05:00:00,
2013-08-13 22:15:00,70.0,38.0,29.89,West,262,5.0,-999.0,31,-99.99,,,0.00,0,weatherlink.com 1.10,2013-08-14 05:15:00,
2013-08-13 22:30:00,69.0,38.0,29.90,West,266,6.0,-999.0,32,-99.99,,,0.00,0,weatherlink.com 1.10,2013-08-14 05:30:00,
2013-08-13 22:45:00,68.8,38.0,29.90,SW,236,7.0,-999.0,32,-99.99,,,0.00,0,weatherlink.com 1.10,2013-08-14 05:45:00,
2013-08-13 23:00:00,68.8,38.0,29.90,WSW,248,6.0,-999.0,32,-99.99,,,0.00,0,weatherlink.com 1.10,2013-08-14 06:00:00,
2013-08-13 23:15:00,69.3,38.0,29.90,WSW,246,6.0,-999.0,32,-99.99,,,0.00,0,weatherlink.com 1.10,2013-08-14 06:15:00,
2013-08-13 23:30:00,69.1,37.0,29.90,WSW,245,6.0,-999.0,31,-99.99,,,0.00,0,weatherlink.com 1.10,2013-08-14 06:30:00,
2013-08-13 23:45:00,68.5,37.0,29.90,WSW,241,5.0,-999.0,32,-99.99,,,0.00,0,weatherlink.com 1.10,2013-08-14 06:45:00,